sensor_id;sensor_type;location;lat;lon;timestamp;P1;durP1;ratioP1;P2;durP2;ratioP2
72132;SDS011;60008;50.826;6.896;2023-02-22T00:00:57;86.73;;;15.07;;
72132;SDS011;60008;50.826;6.896;2023-02-22T00:03:51;64.07;;;15.80;;
72132;SDS011;60008;50.826;6.896;2023-02-22T00:06:37;94.57;;;15.55;;
72132;SDS011;60008;50.826;6.896;2023-02-22T00:09:22;131.95;;;17.25;;
72132;SDS011;60008;50.826;6.896;2023-02-22T00:12:07;77.45;;;15.75;;
72132;SDS011;60008;50.826;6.896;2023-02-22T00:14:53;57.37;;;12.10;;
72132;SDS011;60008;50.826;6.896;2023-02-22T00:17:38;52.55;;;14.88;;
72132;SDS011;60008;50.826;6.896;2023-02-22T00:20:23;56.70;;;15.02;;
72132;SDS011;60008;50.826;6.896;2023-02-22T00:23:13;66.22;;;16.13;;
72132;SDS011;60008;50.826;6.896;2023-02-22T00:26:00;56.95;;;12.40;;
72132;SDS011;60008;50.826;6.896;2023-02-22T00:28:48;71.67;;;13.97;;
72132;SDS011;60008;50.826;6.896;2023-02-22T00:31:37;62.72;;;16.17;;
72132;SDS011;60008;50.826;6.896;2023-02-22T00:34:22;63.25;;;13.13;;
72132;SDS011;60008;50.826;6.896;2023-02-22T00:37:11;90.57;;;14.80;;
72132;SDS011;60008;50.826;6.896;2023-02-22T00:39:56;54.95;;;13.48;;
72132;SDS011;60008;50.826;6.896;2023-02-22T00:42:41;66.57;;;14.93;;
72132;SDS011;60008;50.826;6.896;2023-02-22T00:45:27;63.10;;;12.52;;
72132;SDS011;60008;50.826;6.896;2023-02-22T00:48:13;66.88;;;13.18;;
72132;SDS011;60008;50.826;6.896;2023-02-22T00:50:58;77.53;;;15.98;;
72132;SDS011;60008;50.826;6.896;2023-02-22T00:53:43;59.67;;;14.55;;
72132;SDS011;60008;50.826;6.896;2023-02-22T00:56:29;74.63;;;14.63;;
72132;SDS011;60008;50.826;6.896;2023-02-22T00:59:16;77.32;;;14.75;;
72132;SDS011;60008;50.826;6.896;2023-02-22T01:02:01;84.13;;;16.35;;
72132;SDS011;60008;50.826;6.896;2023-02-22T01:04:46;53.40;;;15.15;;
72132;SDS011;60008;50.826;6.896;2023-02-22T01:07:31;94.15;;;13.88;;
72132;SDS011;60008;50.826;6.896;2023-02-22T01:10:18;61.80;;;12.03;;
72132;SDS011;60008;50.826;6.896;2023-02-22T01:13:05;83.50;;;16.08;;
72132;SDS011;60008;50.826;6.896;2023-02-22T01:15:56;49.88;;;13.57;;
72132;SDS011;60008;50.826;6.896;2023-02-22T01:18:41;67.40;;;13.88;;
72132;SDS011;60008;50.826;6.896;2023-02-22T01:21:26;51.05;;;15.13;;
72132;SDS011;60008;50.826;6.896;2023-02-22T01:24:11;63.73;;;13.43;;
72132;SDS011;60008;50.826;6.896;2023-02-22T01:26:59;47.42;;;12.50;;
72132;SDS011;60008;50.826;6.896;2023-02-22T01:29:47;90.50;;;12.82;;
72132;SDS011;60008;50.826;6.896;2023-02-22T01:32:37;59.72;;;13.80;;
72132;SDS011;60008;50.826;6.896;2023-02-22T01:35:25;66.95;;;15.05;;
72132;SDS011;60008;50.826;6.896;2023-02-22T01:38:12;66.47;;;11.00;;
72132;SDS011;60008;50.826;6.896;2023-02-22T01:40:58;63.85;;;12.52;;
72132;SDS011;60008;50.826;6.896;2023-02-22T01:43:44;71.30;;;12.40;;
72132;SDS011;60008;50.826;6.896;2023-02-22T01:46:29;69.65;;;12.30;;
72132;SDS011;60008;50.826;6.896;2023-02-22T01:49:15;65.68;;;12.30;;
72132;SDS011;60008;50.826;6.896;2023-02-22T01:52:01;87.53;;;13.30;;
72132;SDS011;60008;50.826;6.896;2023-02-22T01:54:51;100.63;;;13.65;;
72132;SDS011;60008;50.826;6.896;2023-02-22T01:57:40;82.90;;;14.15;;
72132;SDS011;60008;50.826;6.896;2023-02-22T02:00:25;81.00;;;14.88;;
72132;SDS011;60008;50.826;6.896;2023-02-22T02:03:13;47.67;;;13.73;;
72132;SDS011;60008;50.826;6.896;2023-02-22T02:06:03;65.57;;;11.43;;
72132;SDS011;60008;50.826;6.896;2023-02-22T02:12:04;39.15;;;11.60;;
72132;SDS011;60008;50.826;6.896;2023-02-22T02:14:53;39.78;;;11.00;;
72132;SDS011;60008;50.826;6.896;2023-02-22T02:18:05;81.25;;;12.50;;
72132;SDS011;60008;50.826;6.896;2023-02-22T02:20:59;63.97;;;14.10;;
72132;SDS011;60008;50.826;6.896;2023-02-22T02:27:40;40.03;;;9.75;;
72132;SDS011;60008;50.826;6.896;2023-02-22T02:30:27;56.42;;;12.35;;
72132;SDS011;60008;50.826;6.896;2023-02-22T02:33:49;35.42;;;10.75;;
72132;SDS011;60008;50.826;6.896;2023-02-22T02:36:55;28.90;;;11.10;;
72132;SDS011;60008;50.826;6.896;2023-02-22T02:42:58;39.88;;;10.32;;
72132;SDS011;60008;50.826;6.896;2023-02-22T02:46:01;27.35;;;9.85;;
72132;SDS011;60008;50.826;6.896;2023-02-22T02:48:52;40.00;;;10.63;;
72132;SDS011;60008;50.826;6.896;2023-02-22T02:51:43;46.13;;;11.33;;
72132;SDS011;60008;50.826;6.896;2023-02-22T02:54:32;53.15;;;13.13;;
72132;SDS011;60008;50.826;6.896;2023-02-22T02:57:18;47.70;;;12.57;;
72132;SDS011;60008;50.826;6.896;2023-02-22T03:00:03;62.33;;;12.55;;
72132;SDS011;60008;50.826;6.896;2023-02-22T03:13:05;38.28;;;11.40;;
72132;SDS011;60008;50.826;6.896;2023-02-22T03:16:01;59.13;;;10.63;;
72132;SDS011;60008;50.826;6.896;2023-02-22T03:19:07;50.13;;;11.18;;
72132;SDS011;60008;50.826;6.896;2023-02-22T03:22:15;58.63;;;10.87;;
72132;SDS011;60008;50.826;6.896;2023-02-22T03:25:14;31.00;;;10.68;;
72132;SDS011;60008;50.826;6.896;2023-02-22T03:28:05;46.78;;;10.20;;
72132;SDS011;60008;50.826;6.896;2023-02-22T03:31:03;39.60;;;10.93;;
72132;SDS011;60008;50.826;6.896;2023-02-22T03:33:51;52.40;;;10.88;;
72132;SDS011;60008;50.826;6.896;2023-02-22T03:36:47;36.00;;;10.27;;
72132;SDS011;60008;50.826;6.896;2023-02-22T03:39:36;66.72;;;10.60;;
72132;SDS011;60008;50.826;6.896;2023-02-22T03:42:28;39.13;;;9.82;;
72132;SDS011;60008;50.826;6.896;2023-02-22T03:45:18;39.85;;;10.75;;
72132;SDS011;60008;50.826;6.896;2023-02-22T03:48:07;39.78;;;9.30;;
72132;SDS011;60008;50.826;6.896;2023-02-22T03:51:01;32.03;;;9.20;;
72132;SDS011;60008;50.826;6.896;2023-02-22T03:53:48;43.47;;;9.68;;
72132;SDS011;60008;50.826;6.896;2023-02-22T03:56:34;40.72;;;9.15;;
72132;SDS011;60008;50.826;6.896;2023-02-22T03:59:31;31.58;;;9.30;;
72132;SDS011;60008;50.826;6.896;2023-02-22T04:02:17;42.45;;;9.40;;
72132;SDS011;60008;50.826;6.896;2023-02-22T04:05:02;29.13;;;8.60;;
72132;SDS011;60008;50.826;6.896;2023-02-22T04:07:48;48.13;;;10.20;;
72132;SDS011;60008;50.826;6.896;2023-02-22T04:10:33;62.70;;;10.05;;
72132;SDS011;60008;50.826;6.896;2023-02-22T04:13:18;49.00;;;8.68;;
72132;SDS011;60008;50.826;6.896;2023-02-22T04:16:03;24.65;;;6.68;;
72132;SDS011;60008;50.826;6.896;2023-02-22T04:18:48;55.30;;;9.50;;
72132;SDS011;60008;50.826;6.896;2023-02-22T04:21:33;47.35;;;10.07;;
72132;SDS011;60008;50.826;6.896;2023-02-22T04:24:18;44.05;;;8.82;;
72132;SDS011;60008;50.826;6.896;2023-02-22T04:27:03;43.38;;;9.25;;
72132;SDS011;60008;50.826;6.896;2023-02-22T04:29:48;62.33;;;9.95;;
72132;SDS011;60008;50.826;6.896;2023-02-22T04:32:33;55.00;;;9.53;;
72132;SDS011;60008;50.826;6.896;2023-02-22T04:35:18;50.30;;;9.60;;
72132;SDS011;60008;50.826;6.896;2023-02-22T04:38:04;54.25;;;9.57;;
72132;SDS011;60008;50.826;6.896;2023-02-22T04:40:49;38.30;;;9.93;;
72132;SDS011;60008;50.826;6.896;2023-02-22T04:43:34;37.95;;;9.23;;
72132;SDS011;60008;50.826;6.896;2023-02-22T04:46:19;32.80;;;8.83;;
72132;SDS011;60008;50.826;6.896;2023-02-22T04:49:04;65.82;;;9.13;;
72132;SDS011;60008;50.826;6.896;2023-02-22T04:51:49;50.50;;;9.10;;
72132;SDS011;60008;50.826;6.896;2023-02-22T04:54:34;39.45;;;8.00;;
72132;SDS011;60008;50.826;6.896;2023-02-22T04:57:19;41.30;;;9.05;;
72132;SDS011;60008;50.826;6.896;2023-02-22T05:00:04;46.70;;;8.03;;
72132;SDS011;60008;50.826;6.896;2023-02-22T05:02:50;57.97;;;8.23;;
72132;SDS011;60008;50.826;6.896;2023-02-22T05:05:35;27.70;;;9.48;;
72132;SDS011;60008;50.826;6.896;2023-02-22T05:08:20;38.85;;;8.60;;
72132;SDS011;60008;50.826;6.896;2023-02-22T05:11:05;54.90;;;9.45;;
72132;SDS011;60008;50.826;6.896;2023-02-22T05:13:50;46.00;;;8.83;;
72132;SDS011;60008;50.826;6.896;2023-02-22T05:16:35;49.80;;;8.73;;
72132;SDS011;60008;50.826;6.896;2023-02-22T05:19:20;35.28;;;9.23;;
72132;SDS011;60008;50.826;6.896;2023-02-22T05:22:06;44.28;;;8.65;;
72132;SDS011;60008;50.826;6.896;2023-02-22T05:24:51;22.75;;;7.45;;
72132;SDS011;60008;50.826;6.896;2023-02-22T05:27:36;61.00;;;8.57;;
72132;SDS011;60008;50.826;6.896;2023-02-22T05:30:22;49.22;;;7.45;;
72132;SDS011;60008;50.826;6.896;2023-02-22T05:33:09;40.10;;;7.65;;
72132;SDS011;60008;50.826;6.896;2023-02-22T05:35:55;61.72;;;8.93;;
72132;SDS011;60008;50.826;6.896;2023-02-22T05:38:40;65.80;;;8.43;;
72132;SDS011;60008;50.826;6.896;2023-02-22T05:41:27;37.93;;;7.87;;
72132;SDS011;60008;50.826;6.896;2023-02-22T05:44:13;60.47;;;8.57;;
72132;SDS011;60008;50.826;6.896;2023-02-22T05:46:57;63.35;;;8.90;;
72132;SDS011;60008;50.826;6.896;2023-02-22T05:49:43;22.02;;;7.50;;
72132;SDS011;60008;50.826;6.896;2023-02-22T05:52:28;32.45;;;8.00;;
72132;SDS011;60008;50.826;6.896;2023-02-22T05:55:14;28.07;;;8.03;;
72132;SDS011;60008;50.826;6.896;2023-02-22T05:58:01;44.55;;;8.65;;
72132;SDS011;60008;50.826;6.896;2023-02-22T06:00:49;37.70;;;8.50;;
72132;SDS011;60008;50.826;6.896;2023-02-22T06:03:34;52.75;;;8.32;;
72132;SDS011;60008;50.826;6.896;2023-02-22T06:06:19;49.53;;;7.75;;
72132;SDS011;60008;50.826;6.896;2023-02-22T06:09:06;29.53;;;8.83;;
72132;SDS011;60008;50.826;6.896;2023-02-22T06:11:51;26.25;;;7.35;;
72132;SDS011;60008;50.826;6.896;2023-02-22T06:14:38;25.25;;;7.95;;
72132;SDS011;60008;50.826;6.896;2023-02-22T06:17:24;34.40;;;8.52;;
72132;SDS011;60008;50.826;6.896;2023-02-22T06:20:10;23.70;;;8.85;;
72132;SDS011;60008;50.826;6.896;2023-02-22T06:22:57;24.83;;;7.83;;
72132;SDS011;60008;50.826;6.896;2023-02-22T06:25:42;18.67;;;7.78;;
72132;SDS011;60008;50.826;6.896;2023-02-22T06:28:27;21.67;;;6.75;;
72132;SDS011;60008;50.826;6.896;2023-02-22T06:31:12;31.15;;;8.18;;
72132;SDS011;60008;50.826;6.896;2023-02-22T06:33:58;33.28;;;8.38;;
72132;SDS011;60008;50.826;6.896;2023-02-22T06:36:43;18.17;;;7.33;;
72132;SDS011;60008;50.826;6.896;2023-02-22T06:39:28;23.40;;;7.60;;
72132;SDS011;60008;50.826;6.896;2023-02-22T06:42:13;22.77;;;8.27;;
72132;SDS011;60008;50.826;6.896;2023-02-22T06:44:58;20.25;;;7.28;;
72132;SDS011;60008;50.826;6.896;2023-02-22T06:47:44;17.98;;;7.63;;
72132;SDS011;60008;50.826;6.896;2023-02-22T06:50:29;23.07;;;9.30;;
72132;SDS011;60008;50.826;6.896;2023-02-22T06:53:15;33.25;;;9.07;;
72132;SDS011;60008;50.826;6.896;2023-02-22T06:56:00;18.20;;;8.60;;
72132;SDS011;60008;50.826;6.896;2023-02-22T06:58:45;25.42;;;8.27;;
72132;SDS011;60008;50.826;6.896;2023-02-22T07:01:31;24.15;;;7.55;;
72132;SDS011;60008;50.826;6.896;2023-02-22T07:04:15;18.30;;;7.67;;
72132;SDS011;60008;50.826;6.896;2023-02-22T07:07:01;26.15;;;8.52;;
72132;SDS011;60008;50.826;6.896;2023-02-22T07:09:46;21.80;;;8.85;;
72132;SDS011;60008;50.826;6.896;2023-02-22T07:12:31;22.90;;;9.10;;
72132;SDS011;60008;50.826;6.896;2023-02-22T07:15:16;21.63;;;9.10;;
72132;SDS011;60008;50.826;6.896;2023-02-22T07:18:02;22.47;;;8.80;;
72132;SDS011;60008;50.826;6.896;2023-02-22T07:20:47;39.17;;;8.23;;
72132;SDS011;60008;50.826;6.896;2023-02-22T07:23:32;21.95;;;7.13;;
72132;SDS011;60008;50.826;6.896;2023-02-22T07:26:17;24.08;;;8.68;;
72132;SDS011;60008;50.826;6.896;2023-02-22T07:29:03;22.08;;;7.68;;
72132;SDS011;60008;50.826;6.896;2023-02-22T07:31:47;38.97;;;8.93;;
72132;SDS011;60008;50.826;6.896;2023-02-22T07:34:33;22.52;;;7.72;;
72132;SDS011;60008;50.826;6.896;2023-02-22T07:37:17;22.83;;;9.40;;
72132;SDS011;60008;50.826;6.896;2023-02-22T07:40:02;40.78;;;10.52;;
72132;SDS011;60008;50.826;6.896;2023-02-22T07:43:01;26.10;;;10.18;;
72132;SDS011;60008;50.826;6.896;2023-02-22T07:45:52;23.43;;;10.40;;
72132;SDS011;60008;50.826;6.896;2023-02-22T07:48:39;29.20;;;10.82;;
72132;SDS011;60008;50.826;6.896;2023-02-22T07:51:23;44.95;;;10.48;;
72132;SDS011;60008;50.826;6.896;2023-02-22T07:54:08;18.20;;;7.57;;
72132;SDS011;60008;50.826;6.896;2023-02-22T07:56:53;26.10;;;8.80;;
72132;SDS011;60008;50.826;6.896;2023-02-22T07:59:38;25.40;;;8.77;;
72132;SDS011;60008;50.826;6.896;2023-02-22T08:02:24;22.65;;;8.15;;
72132;SDS011;60008;50.826;6.896;2023-02-22T08:05:09;21.05;;;8.65;;
72132;SDS011;60008;50.826;6.896;2023-02-22T08:07:55;20.25;;;8.15;;
72132;SDS011;60008;50.826;6.896;2023-02-22T08:10:40;34.25;;;9.70;;
72132;SDS011;60008;50.826;6.896;2023-02-22T08:13:26;26.83;;;8.70;;
72132;SDS011;60008;50.826;6.896;2023-02-22T08:16:11;32.42;;;11.23;;
72132;SDS011;60008;50.826;6.896;2023-02-22T08:18:56;35.28;;;9.48;;
72132;SDS011;60008;50.826;6.896;2023-02-22T08:21:41;25.15;;;8.98;;
72132;SDS011;60008;50.826;6.896;2023-02-22T08:24:26;23.83;;;9.35;;
72132;SDS011;60008;50.826;6.896;2023-02-22T08:27:11;22.83;;;10.10;;
72132;SDS011;60008;50.826;6.896;2023-02-22T08:29:56;31.25;;;8.93;;
72132;SDS011;60008;50.826;6.896;2023-02-22T08:32:41;24.27;;;9.75;;
72132;SDS011;60008;50.826;6.896;2023-02-22T08:35:27;23.13;;;9.95;;
72132;SDS011;60008;50.826;6.896;2023-02-22T08:38:20;20.83;;;9.68;;
72132;SDS011;60008;50.826;6.896;2023-02-22T08:41:07;20.07;;;8.23;;
72132;SDS011;60008;50.826;6.896;2023-02-22T08:43:52;19.42;;;8.13;;
72132;SDS011;60008;50.826;6.896;2023-02-22T08:46:37;21.58;;;8.80;;
72132;SDS011;60008;50.826;6.896;2023-02-22T08:49:22;22.98;;;9.10;;
72132;SDS011;60008;50.826;6.896;2023-02-22T08:52:07;20.73;;;9.00;;
72132;SDS011;60008;50.826;6.896;2023-02-22T08:54:52;24.97;;;10.23;;
72132;SDS011;60008;50.826;6.896;2023-02-22T08:57:38;41.17;;;17.50;;
72132;SDS011;60008;50.826;6.896;2023-02-22T09:00:22;22.67;;;8.80;;
72132;SDS011;60008;50.826;6.896;2023-02-22T09:03:13;25.48;;;10.88;;
72132;SDS011;60008;50.826;6.896;2023-02-22T09:05:59;23.73;;;10.30;;
72132;SDS011;60008;50.826;6.896;2023-02-22T09:08:44;25.60;;;10.63;;
72132;SDS011;60008;50.826;6.896;2023-02-22T09:11:29;23.90;;;8.93;;
72132;SDS011;60008;50.826;6.896;2023-02-22T09:14:14;24.85;;;8.88;;
72132;SDS011;60008;50.826;6.896;2023-02-22T09:17:00;26.90;;;9.82;;
72132;SDS011;60008;50.826;6.896;2023-02-22T09:19:45;21.85;;;9.50;;
72132;SDS011;60008;50.826;6.896;2023-02-22T09:22:30;23.17;;;9.63;;
72132;SDS011;60008;50.826;6.896;2023-02-22T09:25:15;18.95;;;9.25;;
72132;SDS011;60008;50.826;6.896;2023-02-22T09:28:02;21.77;;;9.82;;
72132;SDS011;60008;50.826;6.896;2023-02-22T09:30:47;20.52;;;9.43;;
72132;SDS011;60008;50.826;6.896;2023-02-22T09:33:32;23.98;;;9.38;;
72132;SDS011;60008;50.826;6.896;2023-02-22T09:36:17;23.50;;;9.73;;
72132;SDS011;60008;50.826;6.896;2023-02-22T09:39:05;22.58;;;9.00;;
72132;SDS011;60008;50.826;6.896;2023-02-22T09:48:15;23.75;;;10.35;;
72132;SDS011;60008;50.826;6.896;2023-02-22T09:50:59;19.00;;;8.83;;
72132;SDS011;60008;50.826;6.896;2023-02-22T09:53:47;19.50;;;8.73;;
72132;SDS011;60008;50.826;6.896;2023-02-22T09:56:35;19.90;;;9.23;;
72132;SDS011;60008;50.826;6.896;2023-02-22T09:59:23;18.83;;;8.18;;
72132;SDS011;60008;50.826;6.896;2023-02-22T10:02:17;17.50;;;8.63;;
72132;SDS011;60008;50.826;6.896;2023-02-22T10:08:07;22.80;;;8.85;;
72132;SDS011;60008;50.826;6.896;2023-02-22T10:11:02;21.20;;;9.10;;
72132;SDS011;60008;50.826;6.896;2023-02-22T10:13:58;21.48;;;8.02;;
72132;SDS011;60008;50.826;6.896;2023-02-22T10:17:09;16.52;;;8.00;;
72132;SDS011;60008;50.826;6.896;2023-02-22T10:23:37;23.73;;;8.07;;
72132;SDS011;60008;50.826;6.896;2023-02-22T10:26:43;15.32;;;7.47;;
72132;SDS011;60008;50.826;6.896;2023-02-22T10:32:31;20.05;;;7.82;;
72132;SDS011;60008;50.826;6.896;2023-02-22T10:35:28;16.50;;;7.40;;
72132;SDS011;60008;50.826;6.896;2023-02-22T10:43:52;16.15;;;6.93;;
72132;SDS011;60008;50.826;6.896;2023-02-22T10:46:37;19.50;;;7.68;;
72132;SDS011;60008;50.826;6.896;2023-02-22T10:49:25;13.30;;;6.53;;
72132;SDS011;60008;50.826;6.896;2023-02-22T10:52:31;13.73;;;6.32;;
72132;SDS011;60008;50.826;6.896;2023-02-22T10:55:18;13.05;;;6.32;;
72132;SDS011;60008;50.826;6.896;2023-02-22T10:58:04;12.52;;;5.55;;
72132;SDS011;60008;50.826;6.896;2023-02-22T11:00:51;10.80;;;5.30;;
72132;SDS011;60008;50.826;6.896;2023-02-22T11:03:36;10.63;;;5.00;;
72132;SDS011;60008;50.826;6.896;2023-02-22T11:06:21;8.85;;;4.75;;
72132;SDS011;60008;50.826;6.896;2023-02-22T11:09:14;8.50;;;4.50;;
72132;SDS011;60008;50.826;6.896;2023-02-22T11:12:06;7.70;;;3.67;;
72132;SDS011;60008;50.826;6.896;2023-02-22T11:14:54;8.52;;;3.35;;
72132;SDS011;60008;50.826;6.896;2023-02-22T11:17:39;7.53;;;2.97;;
72132;SDS011;60008;50.826;6.896;2023-02-22T11:20:27;6.82;;;3.53;;
72132;SDS011;60008;50.826;6.896;2023-02-22T11:23:19;7.78;;;4.10;;
72132;SDS011;60008;50.826;6.896;2023-02-22T11:28:52;7.65;;;3.50;;
72132;SDS011;60008;50.826;6.896;2023-02-22T11:31:43;7.63;;;3.43;;
72132;SDS011;60008;50.826;6.896;2023-02-22T11:34:36;7.53;;;3.40;;
72132;SDS011;60008;50.826;6.896;2023-02-22T11:37:35;7.47;;;3.47;;
72132;SDS011;60008;50.826;6.896;2023-02-22T11:40:21;10.80;;;3.50;;
72132;SDS011;60008;50.826;6.896;2023-02-22T11:46:01;9.37;;;3.43;;
72132;SDS011;60008;50.826;6.896;2023-02-22T11:48:59;9.00;;;3.88;;
72132;SDS011;60008;50.826;6.896;2023-02-22T12:07:59;7.72;;;3.95;;
72132;SDS011;60008;50.826;6.896;2023-02-22T12:20:45;8.30;;;3.95;;
72132;SDS011;60008;50.826;6.896;2023-02-22T12:26:50;7.28;;;3.97;;
72132;SDS011;60008;50.826;6.896;2023-02-22T12:29:47;8.95;;;4.28;;
72132;SDS011;60008;50.826;6.896;2023-02-22T12:32:38;8.00;;;3.90;;
72132;SDS011;60008;50.826;6.896;2023-02-22T12:35:31;12.02;;;4.18;;
72132;SDS011;60008;50.826;6.896;2023-02-22T12:38:22;8.60;;;3.42;;
72132;SDS011;60008;50.826;6.896;2023-02-22T12:41:18;8.60;;;4.10;;
72132;SDS011;60008;50.826;6.896;2023-02-22T12:44:15;8.50;;;3.90;;
72132;SDS011;60008;50.826;6.896;2023-02-22T12:47:04;8.83;;;3.80;;
72132;SDS011;60008;50.826;6.896;2023-02-22T12:49:57;12.20;;;4.00;;
72132;SDS011;60008;50.826;6.896;2023-02-22T12:53:48;9.85;;;3.67;;
72132;SDS011;60008;50.826;6.896;2023-02-22T12:56:21;9.00;;;4.10;;
72132;SDS011;60008;50.826;6.896;2023-02-22T13:02:17;7.77;;;3.53;;
72132;SDS011;60008;50.826;6.896;2023-02-22T13:05:11;8.40;;;3.75;;
72132;SDS011;60008;50.826;6.896;2023-02-22T13:17:22;10.83;;;4.30;;
72132;SDS011;60008;50.826;6.896;2023-02-22T13:20:18;8.68;;;3.33;;
72132;SDS011;60008;50.826;6.896;2023-02-22T13:23:18;7.30;;;3.75;;
72132;SDS011;60008;50.826;6.896;2023-02-22T13:29:26;7.68;;;3.70;;
72132;SDS011;60008;50.826;6.896;2023-02-22T13:35:45;10.90;;;4.00;;
72132;SDS011;60008;50.826;6.896;2023-02-22T13:42:19;7.85;;;3.72;;
72132;SDS011;60008;50.826;6.896;2023-02-22T13:51:57;7.03;;;3.05;;
72132;SDS011;60008;50.826;6.896;2023-02-22T13:55:01;10.70;;;3.67;;
72132;SDS011;60008;50.826;6.896;2023-02-22T13:57:58;10.02;;;3.47;;
72132;SDS011;60008;50.826;6.896;2023-02-22T14:00:51;7.68;;;3.65;;
72132;SDS011;60008;50.826;6.896;2023-02-22T14:03:41;7.97;;;3.70;;
72132;SDS011;60008;50.826;6.896;2023-02-22T14:06:35;8.68;;;3.85;;
72132;SDS011;60008;50.826;6.896;2023-02-22T14:09:41;9.25;;;3.90;;
72132;SDS011;60008;50.826;6.896;2023-02-22T14:15:15;8.45;;;4.10;;
72132;SDS011;60008;50.826;6.896;2023-02-22T14:18:15;9.43;;;4.03;;
72132;SDS011;60008;50.826;6.896;2023-02-22T14:21:08;9.07;;;4.30;;
72132;SDS011;60008;50.826;6.896;2023-02-22T14:24:05;8.88;;;3.83;;
72132;SDS011;60008;50.826;6.896;2023-02-22T14:26:54;10.80;;;4.15;;
72132;SDS011;60008;50.826;6.896;2023-02-22T14:29:49;9.23;;;4.18;;
72132;SDS011;60008;50.826;6.896;2023-02-22T14:32:39;10.87;;;4.20;;
72132;SDS011;60008;50.826;6.896;2023-02-22T14:35:25;8.80;;;4.15;;
72132;SDS011;60008;50.826;6.896;2023-02-22T14:38:33;9.75;;;4.22;;
72132;SDS011;60008;50.826;6.896;2023-02-22T14:41:22;8.98;;;3.95;;
72132;SDS011;60008;50.826;6.896;2023-02-22T14:44:11;9.60;;;4.18;;
72132;SDS011;60008;50.826;6.896;2023-02-22T14:46:57;8.53;;;4.37;;
72132;SDS011;60008;50.826;6.896;2023-02-22T14:49:49;13.38;;;4.70;;
72132;SDS011;60008;50.826;6.896;2023-02-22T14:52:38;10.82;;;4.63;;
72132;SDS011;60008;50.826;6.896;2023-02-22T14:55:26;10.65;;;4.25;;
72132;SDS011;60008;50.826;6.896;2023-02-22T15:01:21;10.77;;;3.80;;
72132;SDS011;60008;50.826;6.896;2023-02-22T15:04:22;8.05;;;4.10;;
72132;SDS011;60008;50.826;6.896;2023-02-22T15:07:20;10.10;;;4.65;;
72132;SDS011;60008;50.826;6.896;2023-02-22T15:13:02;13.82;;;5.32;;
72132;SDS011;60008;50.826;6.896;2023-02-22T15:15:57;15.97;;;6.80;;
72132;SDS011;60008;50.826;6.896;2023-02-22T15:18:47;12.43;;;6.57;;
72132;SDS011;60008;50.826;6.896;2023-02-22T15:21:38;11.48;;;5.60;;
72132;SDS011;60008;50.826;6.896;2023-02-22T15:24:30;12.60;;;6.30;;
72132;SDS011;60008;50.826;6.896;2023-02-22T15:27:18;14.10;;;6.18;;
72132;SDS011;60008;50.826;6.896;2023-02-22T15:30:04;15.20;;;6.70;;
72132;SDS011;60008;50.826;6.896;2023-02-22T15:32:52;11.82;;;6.20;;
72132;SDS011;60008;50.826;6.896;2023-02-22T15:35:55;11.57;;;5.65;;
72132;SDS011;60008;50.826;6.896;2023-02-22T15:38:46;9.88;;;5.15;;
72132;SDS011;60008;50.826;6.896;2023-02-22T15:41:35;11.10;;;5.60;;
72132;SDS011;60008;50.826;6.896;2023-02-22T15:44:20;11.93;;;5.80;;
72132;SDS011;60008;50.826;6.896;2023-02-22T15:47:18;12.18;;;5.40;;
72132;SDS011;60008;50.826;6.896;2023-02-22T15:56:13;10.88;;;5.35;;
72132;SDS011;60008;50.826;6.896;2023-02-22T15:59:08;12.70;;;5.90;;
72132;SDS011;60008;50.826;6.896;2023-02-22T16:01:58;12.65;;;5.80;;
72132;SDS011;60008;50.826;6.896;2023-02-22T16:04:43;11.05;;;5.70;;
72132;SDS011;60008;50.826;6.896;2023-02-22T16:07:45;12.38;;;5.88;;
72132;SDS011;60008;50.826;6.896;2023-02-22T16:10:33;13.15;;;5.97;;
72132;SDS011;60008;50.826;6.896;2023-02-22T16:13:20;14.67;;;4.93;;
72132;SDS011;60008;50.826;6.896;2023-02-22T16:22:02;13.57;;;5.75;;
72132;SDS011;60008;50.826;6.896;2023-02-22T16:24:49;13.00;;;5.70;;
72132;SDS011;60008;50.826;6.896;2023-02-22T16:27:39;10.73;;;5.80;;
72132;SDS011;60008;50.826;6.896;2023-02-22T16:30:32;13.10;;;5.43;;
72132;SDS011;60008;50.826;6.896;2023-02-22T16:33:19;13.15;;;5.70;;
72132;SDS011;60008;50.826;6.896;2023-02-22T16:36:04;14.88;;;7.28;;
72132;SDS011;60008;50.826;6.896;2023-02-22T16:38:51;18.02;;;6.72;;
72132;SDS011;60008;50.826;6.896;2023-02-22T16:41:37;13.30;;;6.30;;
72132;SDS011;60008;50.826;6.896;2023-02-22T16:44:23;17.13;;;6.90;;
72132;SDS011;60008;50.826;6.896;2023-02-22T16:47:09;13.85;;;6.90;;
72132;SDS011;60008;50.826;6.896;2023-02-22T16:49:55;17.33;;;7.45;;
72132;SDS011;60008;50.826;6.896;2023-02-22T16:52:40;16.60;;;7.30;;
72132;SDS011;60008;50.826;6.896;2023-02-22T16:55:25;17.93;;;7.20;;
72132;SDS011;60008;50.826;6.896;2023-02-22T16:58:11;19.02;;;8.13;;
72132;SDS011;60008;50.826;6.896;2023-02-22T17:00:58;17.13;;;8.00;;
72132;SDS011;60008;50.826;6.896;2023-02-22T17:03:43;19.67;;;9.02;;
72132;SDS011;60008;50.826;6.896;2023-02-22T17:06:28;20.15;;;8.45;;
72132;SDS011;60008;50.826;6.896;2023-02-22T17:09:13;20.00;;;9.13;;
72132;SDS011;60008;50.826;6.896;2023-02-22T17:12:03;20.65;;;9.00;;
72132;SDS011;60008;50.826;6.896;2023-02-22T17:14:48;21.58;;;9.25;;
72132;SDS011;60008;50.826;6.896;2023-02-22T17:17:34;24.92;;;9.70;;
72132;SDS011;60008;50.826;6.896;2023-02-22T17:20:19;19.48;;;9.02;;
72132;SDS011;60008;50.826;6.896;2023-02-22T17:23:13;19.33;;;8.00;;
72132;SDS011;60008;50.826;6.896;2023-02-22T17:25:59;18.10;;;7.45;;
72132;SDS011;60008;50.826;6.896;2023-02-22T17:28:47;15.63;;;6.60;;
72132;SDS011;60008;50.826;6.896;2023-02-22T17:31:33;12.68;;;6.15;;
72132;SDS011;60008;50.826;6.896;2023-02-22T17:34:18;13.95;;;6.63;;
72132;SDS011;60008;50.826;6.896;2023-02-22T17:37:03;12.07;;;6.30;;
72132;SDS011;60008;50.826;6.896;2023-02-22T17:39:48;12.02;;;6.05;;
72132;SDS011;60008;50.826;6.896;2023-02-22T17:42:34;12.48;;;6.22;;
72132;SDS011;60008;50.826;6.896;2023-02-22T17:45:19;13.77;;;6.25;;
72132;SDS011;60008;50.826;6.896;2023-02-22T17:48:07;14.15;;;6.13;;
72132;SDS011;60008;50.826;6.896;2023-02-22T17:50:53;15.37;;;6.13;;
72132;SDS011;60008;50.826;6.896;2023-02-22T17:53:38;10.57;;;6.05;;
72132;SDS011;60008;50.826;6.896;2023-02-22T17:56:24;12.68;;;6.03;;
72132;SDS011;60008;50.826;6.896;2023-02-22T17:59:09;14.27;;;5.88;;
72132;SDS011;60008;50.826;6.896;2023-02-22T18:01:54;10.55;;;5.75;;
72132;SDS011;60008;50.826;6.896;2023-02-22T18:04:40;14.67;;;7.30;;
72132;SDS011;60008;50.826;6.896;2023-02-22T18:07:25;13.60;;;6.70;;
72132;SDS011;60008;50.826;6.896;2023-02-22T18:10:10;13.30;;;6.82;;
72132;SDS011;60008;50.826;6.896;2023-02-22T18:12:56;14.88;;;6.88;;
72132;SDS011;60008;50.826;6.896;2023-02-22T18:15:45;11.55;;;6.40;;
72132;SDS011;60008;50.826;6.896;2023-02-22T18:18:31;14.47;;;6.47;;
72132;SDS011;60008;50.826;6.896;2023-02-22T18:21:16;15.57;;;6.70;;
72132;SDS011;60008;50.826;6.896;2023-02-22T18:24:01;13.18;;;7.38;;
72132;SDS011;60008;50.826;6.896;2023-02-22T18:26:47;17.38;;;6.88;;
72132;SDS011;60008;50.826;6.896;2023-02-22T18:29:33;13.15;;;6.85;;
72132;SDS011;60008;50.826;6.896;2023-02-22T18:32:19;14.33;;;7.37;;
72132;SDS011;60008;50.826;6.896;2023-02-22T18:35:04;17.55;;;7.57;;
72132;SDS011;60008;50.826;6.896;2023-02-22T18:37:50;14.55;;;6.78;;
72132;SDS011;60008;50.826;6.896;2023-02-22T18:40:35;19.17;;;7.55;;
72132;SDS011;60008;50.826;6.896;2023-02-22T18:43:20;16.33;;;7.47;;
72132;SDS011;60008;50.826;6.896;2023-02-22T18:46:19;12.70;;;7.10;;